Terminal Aerodrome Forecast
Issued by NWS

Home | Current Version | Previous Version | Text Only | Print | Product List | Glossary On
Versions: 1 2 3 4 5 6 7 8 9 10 11 12 13
000
FTUS45 KREV 262338
TAFTVL
TAF
KTVL 262338Z 2700/2724 19010G20KT P6SM SCT030 BKN050 WS020/22045KT
     FM270400 19008KT P6SM FEW030 BKN080
     FM271800 19010G18KT P6SM SCT100 BKN160=

USA.gov is the U.S. government's official web portal to all federal, state and local government web resources and services.